sensor_id;sensor_type;location;lat;lon;timestamp;temperature;humidity
69770;SHT30;57282;52.514;13.458;2022-07-18T00:00:14;19.71;52.57
69770;SHT30;57282;52.514;13.458;2022-07-18T00:02:40;19.75;52.70
69770;SHT30;57282;52.514;13.458;2022-07-18T00:05:08;19.74;52.23
69770;SHT30;57282;52.514;13.458;2022-07-18T00:07:35;19.71;52.14
69770;SHT30;57282;52.514;13.458;2022-07-18T00:10:02;19.71;52.24
69770;SHT30;57282;52.514;13.458;2022-07-18T00:12:29;19.75;52.25
69770;SHT30;57282;52.514;13.458;2022-07-18T00:14:56;19.73;52.36
69770;SHT30;57282;52.514;13.458;2022-07-18T00:17:22;19.73;51.92
69770;SHT30;57282;52.514;13.458;2022-07-18T00:19:49;19.71;52.23
69770;SHT30;57282;52.514;13.458;2022-07-18T00:22:17;19.74;52.34
69770;SHT30;57282;52.514;13.458;2022-07-18T00:24:44;19.73;52.25
69770;SHT30;57282;52.514;13.458;2022-07-18T00:27:10;19.75;51.94
69770;SHT30;57282;52.514;13.458;2022-07-18T00:29:37;19.71;51.56
69770;SHT30;57282;52.514;13.458;2022-07-18T00:32:06;19.73;51.48
69770;SHT30;57282;52.514;13.458;2022-07-18T00:34:35;19.74;51.73
69770;SHT30;57282;52.514;13.458;2022-07-18T00:37:02;19.74;51.42
69770;SHT30;57282;52.514;13.458;2022-07-18T00:39:31;19.71;51.28
69770;SHT30;57282;52.514;13.458;2022-07-18T00:41:57;19.73;51.23
69770;SHT30;57282;52.514;13.458;2022-07-18T00:44:26;19.70;51.37
69770;SHT30;57282;52.514;13.458;2022-07-18T00:46:56;19.68;51.24
69770;SHT30;57282;52.514;13.458;2022-07-18T00:49:25;19.70;50.95
69770;SHT30;57282;52.514;13.458;2022-07-18T00:51:52;19.68;51.35
69770;SHT30;57282;52.514;13.458;2022-07-18T00:54:19;19.65;50.92
69770;SHT30;57282;52.514;13.458;2022-07-18T00:56:48;19.67;50.57
69770;SHT30;57282;52.514;13.458;2022-07-18T00:59:17;19.67;50.71
69770;SHT30;57282;52.514;13.458;2022-07-18T01:01:44;19.65;51.08
69770;SHT30;57282;52.514;13.458;2022-07-18T01:04:14;19.64;51.10
69770;SHT30;57282;52.514;13.458;2022-07-18T01:06:43;19.65;50.71
69770;SHT30;57282;52.514;13.458;2022-07-18T01:09:10;19.65;50.84
69770;SHT30;57282;52.514;13.458;2022-07-18T01:11:37;19.61;50.99
69770;SHT30;57282;52.514;13.458;2022-07-18T01:14:06;19.63;51.00
69770;SHT30;57282;52.514;13.458;2022-07-18T01:16:34;19.57;51.33
69770;SHT30;57282;52.514;13.458;2022-07-18T01:19:02;19.55;51.13
69770;SHT30;57282;52.514;13.458;2022-07-18T01:21:31;19.55;51.05
69770;SHT30;57282;52.514;13.458;2022-07-18T01:23:58;19.54;51.58
69770;SHT30;57282;52.514;13.458;2022-07-18T01:26:25;19.54;51.39
69770;SHT30;57282;52.514;13.458;2022-07-18T01:28:52;19.53;51.41
69770;SHT30;57282;52.514;13.458;2022-07-18T01:31:18;19.54;51.55
69770;SHT30;57282;52.514;13.458;2022-07-18T01:33:45;19.47;51.52
69770;SHT30;57282;52.514;13.458;2022-07-18T01:36:12;19.47;51.45
69770;SHT30;57282;52.514;13.458;2022-07-18T01:38:40;19.41;51.51
69770;SHT30;57282;52.514;13.458;2022-07-18T01:41:07;19.37;51.87
69770;SHT30;57282;52.514;13.458;2022-07-18T01:43:34;19.37;51.98
69770;SHT30;57282;52.514;13.458;2022-07-18T01:46:03;19.37;52.29
69770;SHT30;57282;52.514;13.458;2022-07-18T01:48:30;19.36;52.15
69770;SHT30;57282;52.514;13.458;2022-07-18T01:50:56;19.30;52.30
69770;SHT30;57282;52.514;13.458;2022-07-18T01:53:23;19.31;52.26
69770;SHT30;57282;52.514;13.458;2022-07-18T01:55:51;19.27;52.56
69770;SHT30;57282;52.514;13.458;2022-07-18T01:58:18;19.27;52.30
69770;SHT30;57282;52.514;13.458;2022-07-18T02:00:45;19.23;52.68
69770;SHT30;57282;52.514;13.458;2022-07-18T02:03:11;19.23;52.95
69770;SHT30;57282;52.514;13.458;2022-07-18T02:05:38;19.17;52.73
69770;SHT30;57282;52.514;13.458;2022-07-18T02:08:05;19.12;52.88
69770;SHT30;57282;52.514;13.458;2022-07-18T02:10:31;19.13;53.10
69770;SHT30;57282;52.514;13.458;2022-07-18T02:12:59;19.16;53.04
69770;SHT30;57282;52.514;13.458;2022-07-18T02:15:26;19.12;53.00
69770;SHT30;57282;52.514;13.458;2022-07-18T02:17:52;19.06;52.90
69770;SHT30;57282;52.514;13.458;2022-07-18T02:20:19;19.05;53.10
69770;SHT30;57282;52.514;13.458;2022-07-18T02:22:45;18.98;53.57
69770;SHT30;57282;52.514;13.458;2022-07-18T02:25:12;18.98;53.65
69770;SHT30;57282;52.514;13.458;2022-07-18T02:27:39;18.95;53.69
69770;SHT30;57282;52.514;13.458;2022-07-18T02:30:09;18.91;53.79
69770;SHT30;57282;52.514;13.458;2022-07-18T02:32:37;18.85;53.86
69770;SHT30;57282;52.514;13.458;2022-07-18T02:35:06;18.79;54.01
69770;SHT30;57282;52.514;13.458;2022-07-18T02:37:34;18.78;54.14
69770;SHT30;57282;52.514;13.458;2022-07-18T02:40:04;18.78;54.31
69770;SHT30;57282;52.514;13.458;2022-07-18T02:42:33;18.75;54.41
69770;SHT30;57282;52.514;13.458;2022-07-18T02:44:59;18.76;54.48
69770;SHT30;57282;52.514;13.458;2022-07-18T02:47:27;18.75;54.52
69770;SHT30;57282;52.514;13.458;2022-07-18T02:49:54;18.72;54.70
69770;SHT30;57282;52.514;13.458;2022-07-18T02:52:21;18.72;54.65
69770;SHT30;57282;52.514;13.458;2022-07-18T02:54:47;18.69;54.74
69770;SHT30;57282;52.514;13.458;2022-07-18T02:57:14;18.65;54.77
69770;SHT30;57282;52.514;13.458;2022-07-18T02:59:41;18.67;54.93
69770;SHT30;57282;52.514;13.458;2022-07-18T03:02:07;18.69;54.75
69770;SHT30;57282;52.514;13.458;2022-07-18T03:04:35;18.65;55.01
69770;SHT30;57282;52.514;13.458;2022-07-18T03:07:02;18.58;55.16
69770;SHT30;57282;52.514;13.458;2022-07-18T03:09:28;18.55;55.02
69770;SHT30;57282;52.514;13.458;2022-07-18T03:11:56;18.51;55.19
69770;SHT30;57282;52.514;13.458;2022-07-18T03:14:23;18.51;55.16
69770;SHT30;57282;52.514;13.458;2022-07-18T03:16:49;18.47;55.39
69770;SHT30;57282;52.514;13.458;2022-07-18T03:19:16;18.47;55.55
69770;SHT30;57282;52.514;13.458;2022-07-18T03:21:44;18.48;55.35
69770;SHT30;57282;52.514;13.458;2022-07-18T03:24:11;18.38;55.66
69770;SHT30;57282;52.514;13.458;2022-07-18T03:26:39;18.36;55.72
69770;SHT30;57282;52.514;13.458;2022-07-18T03:29:06;18.34;55.86
69770;SHT30;57282;52.514;13.458;2022-07-18T03:31:32;18.33;55.91
69770;SHT30;57282;52.514;13.458;2022-07-18T03:33:59;18.31;56.06
69770;SHT30;57282;52.514;13.458;2022-07-18T03:36:26;18.30;56.20
69770;SHT30;57282;52.514;13.458;2022-07-18T03:38:54;18.31;55.99
69770;SHT30;57282;52.514;13.458;2022-07-18T03:41:20;18.27;56.02
69770;SHT30;57282;52.514;13.458;2022-07-18T03:43:47;18.26;56.05
69770;SHT30;57282;52.514;13.458;2022-07-18T03:46:14;18.23;56.37
69770;SHT30;57282;52.514;13.458;2022-07-18T03:48:40;18.23;56.37
69770;SHT30;57282;52.514;13.458;2022-07-18T03:51:07;18.26;56.59
69770;SHT30;57282;52.514;13.458;2022-07-18T03:53:34;18.26;56.69
69770;SHT30;57282;52.514;13.458;2022-07-18T03:56:01;18.26;56.76
69770;SHT30;57282;52.514;13.458;2022-07-18T03:58:28;18.27;56.69
69770;SHT30;57282;52.514;13.458;2022-07-18T04:00:55;18.27;56.52
69770;SHT30;57282;52.514;13.458;2022-07-18T04:03:22;18.27;56.65
69770;SHT30;57282;52.514;13.458;2022-07-18T04:05:49;18.26;56.87
69770;SHT30;57282;52.514;13.458;2022-07-18T04:08:16;18.26;56.93
69770;SHT30;57282;52.514;13.458;2022-07-18T04:10:43;18.23;57.14
69770;SHT30;57282;52.514;13.458;2022-07-18T04:13:11;18.23;57.07
69770;SHT30;57282;52.514;13.458;2022-07-18T04:15:38;18.26;57.17
69770;SHT30;57282;52.514;13.458;2022-07-18T04:18:06;18.26;57.16
69770;SHT30;57282;52.514;13.458;2022-07-18T04:20:35;18.23;57.38
69770;SHT30;57282;52.514;13.458;2022-07-18T04:23:05;18.27;57.32
69770;SHT30;57282;52.514;13.458;2022-07-18T04:25:35;18.26;57.56
69770;SHT30;57282;52.514;13.458;2022-07-18T04:28:03;18.30;56.61
69770;SHT30;57282;52.514;13.458;2022-07-18T04:30:33;18.33;56.52
69770;SHT30;57282;52.514;13.458;2022-07-18T04:33:01;18.34;56.72
69770;SHT30;57282;52.514;13.458;2022-07-18T04:35:28;18.34;56.88
69770;SHT30;57282;52.514;13.458;2022-07-18T04:37:55;18.31;57.05
69770;SHT30;57282;52.514;13.458;2022-07-18T04:40:22;18.31;57.08
69770;SHT30;57282;52.514;13.458;2022-07-18T04:42:49;18.36;57.04
69770;SHT30;57282;52.514;13.458;2022-07-18T04:45:16;18.36;57.10
69770;SHT30;57282;52.514;13.458;2022-07-18T04:47:48;18.36;57.33
69770;SHT30;57282;52.514;13.458;2022-07-18T04:50:15;18.37;57.11
69770;SHT30;57282;52.514;13.458;2022-07-18T04:52:43;18.41;56.94
69770;SHT30;57282;52.514;13.458;2022-07-18T04:55:13;18.44;56.83
69770;SHT30;57282;52.514;13.458;2022-07-18T04:57:40;18.45;56.76
69770;SHT30;57282;52.514;13.458;2022-07-18T05:00:10;18.47;56.75
69770;SHT30;57282;52.514;13.458;2022-07-18T05:02:39;18.45;56.79
69770;SHT30;57282;52.514;13.458;2022-07-18T05:05:09;18.48;56.80
69770;SHT30;57282;52.514;13.458;2022-07-18T05:07:37;18.51;57.08
69770;SHT30;57282;52.514;13.458;2022-07-18T05:10:05;18.51;57.29
69770;SHT30;57282;52.514;13.458;2022-07-18T05:12:34;18.49;57.31
69770;SHT30;57282;52.514;13.458;2022-07-18T05:15:01;18.55;57.62
69770;SHT30;57282;52.514;13.458;2022-07-18T05:17:31;18.57;58.11
69770;SHT30;57282;52.514;13.458;2022-07-18T05:19:57;18.59;57.95
69770;SHT30;57282;52.514;13.458;2022-07-18T05:22:25;18.62;57.73
69770;SHT30;57282;52.514;13.458;2022-07-18T05:24:52;18.64;57.53
69770;SHT30;57282;52.514;13.458;2022-07-18T05:27:19;18.68;57.53
69770;SHT30;57282;52.514;13.458;2022-07-18T05:29:45;18.73;57.45
69770;SHT30;57282;52.514;13.458;2022-07-18T05:32:12;18.78;57.59
69770;SHT30;57282;52.514;13.458;2022-07-18T05:34:39;18.78;57.67
69770;SHT30;57282;52.514;13.458;2022-07-18T05:37:05;18.79;57.27
69770;SHT30;57282;52.514;13.458;2022-07-18T05:39:33;18.84;56.78
69770;SHT30;57282;52.514;13.458;2022-07-18T05:42:00;18.88;56.58
69770;SHT30;57282;52.514;13.458;2022-07-18T05:44:27;18.94;56.44
69770;SHT30;57282;52.514;13.458;2022-07-18T05:46:53;18.96;56.66
69770;SHT30;57282;52.514;13.458;2022-07-18T05:49:20;19.00;57.35
69770;SHT30;57282;52.514;13.458;2022-07-18T05:51:47;19.03;57.38
69770;SHT30;57282;52.514;13.458;2022-07-18T05:54:13;19.09;57.09
69770;SHT30;57282;52.514;13.458;2022-07-18T05:56:46;19.10;57.09
69770;SHT30;57282;52.514;13.458;2022-07-18T05:59:13;19.16;56.86
69770;SHT30;57282;52.514;13.458;2022-07-18T06:01:40;19.19;56.97
69770;SHT30;57282;52.514;13.458;2022-07-18T06:04:07;19.23;57.00
69770;SHT30;57282;52.514;13.458;2022-07-18T06:06:34;19.28;56.74
69770;SHT30;57282;52.514;13.458;2022-07-18T06:09:01;19.31;56.29
69770;SHT30;57282;52.514;13.458;2022-07-18T06:11:28;19.37;55.52
69770;SHT30;57282;52.514;13.458;2022-07-18T06:13:56;19.44;54.81
69770;SHT30;57282;52.514;13.458;2022-07-18T06:16:23;19.50;54.59
69770;SHT30;57282;52.514;13.458;2022-07-18T06:18:50;19.53;54.57
69770;SHT30;57282;52.514;13.458;2022-07-18T06:21:16;19.57;54.49
69770;SHT30;57282;52.514;13.458;2022-07-18T06:23:43;19.60;54.49
69770;SHT30;57282;52.514;13.458;2022-07-18T06:26:10;19.67;54.62
69770;SHT30;57282;52.514;13.458;2022-07-18T06:28:37;19.73;54.13
69770;SHT30;57282;52.514;13.458;2022-07-18T06:31:05;19.78;54.05
69770;SHT30;57282;52.514;13.458;2022-07-18T06:33:32;19.84;53.74
69770;SHT30;57282;52.514;13.458;2022-07-18T06:35:59;19.91;53.60
69770;SHT30;57282;52.514;13.458;2022-07-18T06:38:26;19.96;53.42
69770;SHT30;57282;52.514;13.458;2022-07-18T06:40:53;20.04;53.15
69770;SHT30;57282;52.514;13.458;2022-07-18T06:43:19;20.09;53.31
69770;SHT30;57282;52.514;13.458;2022-07-18T06:45:46;20.15;53.06
69770;SHT30;57282;52.514;13.458;2022-07-18T06:48:14;20.16;53.07
69770;SHT30;57282;52.514;13.458;2022-07-18T06:50:42;20.25;52.83
69770;SHT30;57282;52.514;13.458;2022-07-18T06:53:08;20.32;52.32
69770;SHT30;57282;52.514;13.458;2022-07-18T06:55:35;20.42;50.91
69770;SHT30;57282;52.514;13.458;2022-07-18T06:58:02;20.42;51.44
69770;SHT30;57282;52.514;13.458;2022-07-18T07:00:29;20.49;51.28
69770;SHT30;57282;52.514;13.458;2022-07-18T07:02:56;20.63;50.60
69770;SHT30;57282;52.514;13.458;2022-07-18T07:05:24;20.66;50.25
69770;SHT30;57282;52.514;13.458;2022-07-18T07:07:51;20.71;50.37
69770;SHT30;57282;52.514;13.458;2022-07-18T07:10:18;20.74;50.05
69770;SHT30;57282;52.514;13.458;2022-07-18T07:12:47;20.74;50.04
69770;SHT30;57282;52.514;13.458;2022-07-18T07:15:17;20.80;49.53
69770;SHT30;57282;52.514;13.458;2022-07-18T07:17:46;20.84;49.42
69770;SHT30;57282;52.514;13.458;2022-07-18T07:20:13;20.88;49.45
69770;SHT30;57282;52.514;13.458;2022-07-18T07:22:45;20.94;48.93
69770;SHT30;57282;52.514;13.458;2022-07-18T07:25:14;20.95;48.46
69770;SHT30;57282;52.514;13.458;2022-07-18T07:27:41;20.97;48.13
69770;SHT30;57282;52.514;13.458;2022-07-18T07:30:10;21.00;47.93
69770;SHT30;57282;52.514;13.458;2022-07-18T07:32:39;21.04;48.00
69770;SHT30;57282;52.514;13.458;2022-07-18T07:35:09;21.08;48.20
69770;SHT30;57282;52.514;13.458;2022-07-18T07:37:38;21.12;47.84
69770;SHT30;57282;52.514;13.458;2022-07-18T07:40:07;21.18;47.12
69770;SHT30;57282;52.514;13.458;2022-07-18T07:42:35;21.25;47.17
69770;SHT30;57282;52.514;13.458;2022-07-18T07:45:03;21.31;47.23
69770;SHT30;57282;52.514;13.458;2022-07-18T07:47:30;21.41;46.90
69770;SHT30;57282;52.514;13.458;2022-07-18T07:49:57;21.58;45.44
69770;SHT30;57282;52.514;13.458;2022-07-18T07:52:24;21.48;45.49
69770;SHT30;57282;52.514;13.458;2022-07-18T07:54:53;21.48;46.25
69770;SHT30;57282;52.514;13.458;2022-07-18T07:57:21;21.55;46.03
69770;SHT30;57282;52.514;13.458;2022-07-18T07:59:47;21.56;45.85
69770;SHT30;57282;52.514;13.458;2022-07-18T08:02:14;21.59;45.89
69770;SHT30;57282;52.514;13.458;2022-07-18T08:04:42;21.67;46.14
69770;SHT30;57282;52.514;13.458;2022-07-18T08:07:08;21.75;45.84
69770;SHT30;57282;52.514;13.458;2022-07-18T08:09:36;21.79;45.94
69770;SHT30;57282;52.514;13.458;2022-07-18T08:12:04;21.85;46.19
69770;SHT30;57282;52.514;13.458;2022-07-18T08:14:33;21.92;45.73
69770;SHT30;57282;52.514;13.458;2022-07-18T08:17:03;21.97;45.36
69770;SHT30;57282;52.514;13.458;2022-07-18T08:19:30;22.06;45.23
69770;SHT30;57282;52.514;13.458;2022-07-18T08:21:56;22.01;45.05
69770;SHT30;57282;52.514;13.458;2022-07-18T08:24:23;22.13;45.02
69770;SHT30;57282;52.514;13.458;2022-07-18T08:26:50;22.17;44.65
69770;SHT30;57282;52.514;13.458;2022-07-18T08:29:16;22.25;44.51
69770;SHT30;57282;52.514;13.458;2022-07-18T08:31:44;22.31;44.45
69770;SHT30;57282;52.514;13.458;2022-07-18T08:34:12;22.34;43.50
69770;SHT30;57282;52.514;13.458;2022-07-18T08:36:38;22.34;43.71
69770;SHT30;57282;52.514;13.458;2022-07-18T08:39:05;22.40;43.55
69770;SHT30;57282;52.514;13.458;2022-07-18T08:41:32;22.45;43.12
69770;SHT30;57282;52.514;13.458;2022-07-18T08:44:00;22.43;42.88
69770;SHT30;57282;52.514;13.458;2022-07-18T08:46:27;22.47;42.08
69770;SHT30;57282;52.514;13.458;2022-07-18T08:48:56;22.43;42.50
69770;SHT30;57282;52.514;13.458;2022-07-18T08:51:22;22.48;42.81
69770;SHT30;57282;52.514;13.458;2022-07-18T08:53:50;22.51;42.78
69770;SHT30;57282;52.514;13.458;2022-07-18T08:56:17;22.58;42.54
69770;SHT30;57282;52.514;13.458;2022-07-18T08:58:44;22.51;42.65
69770;SHT30;57282;52.514;13.458;2022-07-18T09:01:10;22.52;43.00
69770;SHT30;57282;52.514;13.458;2022-07-18T09:03:37;22.55;43.22
69770;SHT30;57282;52.514;13.458;2022-07-18T09:06:06;22.56;42.68
69770;SHT30;57282;52.514;13.458;2022-07-18T09:08:34;22.59;42.44
69770;SHT30;57282;52.514;13.458;2022-07-18T09:11:03;22.64;42.14
69770;SHT30;57282;52.514;13.458;2022-07-18T09:13:37;22.73;42.32
69770;SHT30;57282;52.514;13.458;2022-07-18T09:16:07;22.73;42.09
69770;SHT30;57282;52.514;13.458;2022-07-18T09:18:38;22.82;41.56
69770;SHT30;57282;52.514;13.458;2022-07-18T09:21:09;22.89;41.33
69770;SHT30;57282;52.514;13.458;2022-07-18T09:23:39;22.95;40.30
69770;SHT30;57282;52.514;13.458;2022-07-18T09:26:08;22.95;40.71
69770;SHT30;57282;52.514;13.458;2022-07-18T09:28:47;22.96;40.77
69770;SHT30;57282;52.514;13.458;2022-07-18T09:31:20;22.92;41.12
69770;SHT30;57282;52.514;13.458;2022-07-18T09:33:53;22.99;41.79
69770;SHT30;57282;52.514;13.458;2022-07-18T09:36:21;23.03;42.08
69770;SHT30;57282;52.514;13.458;2022-07-18T09:38:49;23.10;41.58
69770;SHT30;57282;52.514;13.458;2022-07-18T09:41:16;23.16;41.43
69770;SHT30;57282;52.514;13.458;2022-07-18T09:43:48;23.20;41.69
69770;SHT30;57282;52.514;13.458;2022-07-18T09:46:15;23.20;41.70
69770;SHT30;57282;52.514;13.458;2022-07-18T09:48:42;23.27;41.48
69770;SHT30;57282;52.514;13.458;2022-07-18T09:51:08;23.31;41.04
69770;SHT30;57282;52.514;13.458;2022-07-18T09:53:39;23.36;40.62
69770;SHT30;57282;52.514;13.458;2022-07-18T09:56:08;23.31;41.40
69770;SHT30;57282;52.514;13.458;2022-07-18T09:58:37;23.34;41.66
69770;SHT30;57282;52.514;13.458;2022-07-18T10:01:08;23.40;41.52
69770;SHT30;57282;52.514;13.458;2022-07-18T10:03:37;23.43;41.16
69770;SHT30;57282;52.514;13.458;2022-07-18T10:06:04;23.57;40.88
69770;SHT30;57282;52.514;13.458;2022-07-18T10:08:33;23.71;40.39
69770;SHT30;57282;52.514;13.458;2022-07-18T10:11:03;23.70;40.73
69770;SHT30;57282;52.514;13.458;2022-07-18T10:13:33;23.72;40.29
69770;SHT30;57282;52.514;13.458;2022-07-18T10:16:01;23.74;40.01
69770;SHT30;57282;52.514;13.458;2022-07-18T10:18:30;23.86;39.75
69770;SHT30;57282;52.514;13.458;2022-07-18T10:21:02;23.89;39.81
69770;SHT30;57282;52.514;13.458;2022-07-18T10:23:35;23.89;39.33
69770;SHT30;57282;52.514;13.458;2022-07-18T10:26:12;23.91;39.54
69770;SHT30;57282;52.514;13.458;2022-07-18T10:29:09;23.91;39.64
69770;SHT30;57282;52.514;13.458;2022-07-18T10:31:58;23.95;39.59
69770;SHT30;57282;52.514;13.458;2022-07-18T10:34:28;23.98;39.13
69770;SHT30;57282;52.514;13.458;2022-07-18T10:37:09;24.02;39.50
69770;SHT30;57282;52.514;13.458;2022-07-18T10:39:38;24.06;39.37
69770;SHT30;57282;52.514;13.458;2022-07-18T10:42:19;24.16;39.43
69770;SHT30;57282;52.514;13.458;2022-07-18T10:44:49;24.16;39.08
69770;SHT30;57282;52.514;13.458;2022-07-18T10:47:18;24.40;38.39
69770;SHT30;57282;52.514;13.458;2022-07-18T10:50:07;24.49;38.21
69770;SHT30;57282;52.514;13.458;2022-07-18T10:53:00;24.52;38.13
69770;SHT30;57282;52.514;13.458;2022-07-18T10:55:28;24.43;38.70
69770;SHT30;57282;52.514;13.458;2022-07-18T10:58:19;24.40;38.76
69770;SHT30;57282;52.514;13.458;2022-07-18T11:00:50;24.37;38.90
69770;SHT30;57282;52.514;13.458;2022-07-18T11:03:26;24.46;38.52
69770;SHT30;57282;52.514;13.458;2022-07-18T11:05:55;24.41;38.70
69770;SHT30;57282;52.514;13.458;2022-07-18T11:08:22;24.49;39.27
69770;SHT30;57282;52.514;13.458;2022-07-18T11:11:10;24.52;38.71
69770;SHT30;57282;52.514;13.458;2022-07-18T11:13:43;24.49;39.00
69770;SHT30;57282;52.514;13.458;2022-07-18T11:16:17;24.50;38.82
69770;SHT30;57282;52.514;13.458;2022-07-18T11:19:21;24.57;38.32
69770;SHT30;57282;52.514;13.458;2022-07-18T11:21:58;24.68;38.12
69770;SHT30;57282;52.514;13.458;2022-07-18T11:24:26;24.67;37.93
69770;SHT30;57282;52.514;13.458;2022-07-18T11:26:53;24.67;38.28
69770;SHT30;57282;52.514;13.458;2022-07-18T11:29:21;24.74;38.14
69770;SHT30;57282;52.514;13.458;2022-07-18T11:31:49;24.78;38.02
69770;SHT30;57282;52.514;13.458;2022-07-18T11:34:18;24.81;38.21
69770;SHT30;57282;52.514;13.458;2022-07-18T11:36:46;24.90;38.23
69770;SHT30;57282;52.514;13.458;2022-07-18T11:39:14;24.97;37.52
69770;SHT30;57282;52.514;13.458;2022-07-18T11:41:54;24.92;37.69
69770;SHT30;57282;52.514;13.458;2022-07-18T11:44:22;24.91;37.86
69770;SHT30;57282;52.514;13.458;2022-07-18T11:47:01;24.97;37.78
69770;SHT30;57282;52.514;13.458;2022-07-18T11:49:29;25.07;38.03
69770;SHT30;57282;52.514;13.458;2022-07-18T11:51:55;25.16;36.98
69770;SHT30;57282;52.514;13.458;2022-07-18T11:54:23;25.22;37.28
69770;SHT30;57282;52.514;13.458;2022-07-18T11:56:52;25.32;36.77
69770;SHT30;57282;52.514;13.458;2022-07-18T11:59:20;25.50;36.47
69770;SHT30;57282;52.514;13.458;2022-07-18T12:01:48;25.54;36.29
69770;SHT30;57282;52.514;13.458;2022-07-18T12:04:19;25.53;36.42
69770;SHT30;57282;52.514;13.458;2022-07-18T12:07:14;25.66;35.96
69770;SHT30;57282;52.514;13.458;2022-07-18T12:09:42;25.73;35.67
69770;SHT30;57282;52.514;13.458;2022-07-18T12:12:10;25.76;35.52
69770;SHT30;57282;52.514;13.458;2022-07-18T12:14:37;25.72;35.76
69770;SHT30;57282;52.514;13.458;2022-07-18T12:17:06;25.79;35.93
69770;SHT30;57282;52.514;13.458;2022-07-18T12:19:34;25.80;35.80
69770;SHT30;57282;52.514;13.458;2022-07-18T12:22:07;25.84;35.71
69770;SHT30;57282;52.514;13.458;2022-07-18T12:24:37;25.93;34.77
69770;SHT30;57282;52.514;13.458;2022-07-18T12:27:15;25.90;34.64
69770;SHT30;57282;52.514;13.458;2022-07-18T12:29:58;25.86;34.70
69770;SHT30;57282;52.514;13.458;2022-07-18T12:32:48;25.83;34.59
69770;SHT30;57282;52.514;13.458;2022-07-18T12:35:19;25.86;34.67
69770;SHT30;57282;52.514;13.458;2022-07-18T12:37:51;25.89;34.34
69770;SHT30;57282;52.514;13.458;2022-07-18T12:40:20;25.90;34.32
69770;SHT30;57282;52.514;13.458;2022-07-18T12:42:48;25.87;34.18
69770;SHT30;57282;52.514;13.458;2022-07-18T12:45:15;25.90;34.04
69770;SHT30;57282;52.514;13.458;2022-07-18T12:47:42;25.93;34.74
69770;SHT30;57282;52.514;13.458;2022-07-18T12:50:10;25.94;34.82
69770;SHT30;57282;52.514;13.458;2022-07-18T12:52:36;25.93;34.97
69770;SHT30;57282;52.514;13.458;2022-07-18T12:55:04;25.94;34.64
69770;SHT30;57282;52.514;13.458;2022-07-18T12:57:31;25.94;35.02
69770;SHT30;57282;52.514;13.458;2022-07-18T12:59:58;25.97;35.25
69770;SHT30;57282;52.514;13.458;2022-07-18T13:02:24;26.01;35.12
69770;SHT30;57282;52.514;13.458;2022-07-18T13:04:51;26.14;34.36
69770;SHT30;57282;52.514;13.458;2022-07-18T13:07:19;26.22;34.53
69770;SHT30;57282;52.514;13.458;2022-07-18T13:09:45;26.22;34.63
69770;SHT30;57282;52.514;13.458;2022-07-18T13:12:12;26.38;34.28
69770;SHT30;57282;52.514;13.458;2022-07-18T13:14:39;26.34;34.09
69770;SHT30;57282;52.514;13.458;2022-07-18T13:17:05;26.25;34.11
69770;SHT30;57282;52.514;13.458;2022-07-18T13:19:32;26.17;33.92
69770;SHT30;57282;52.514;13.458;2022-07-18T13:21:59;26.11;33.97
69770;SHT30;57282;52.514;13.458;2022-07-18T13:24:27;26.17;33.91
69770;SHT30;57282;52.514;13.458;2022-07-18T13:26:54;26.16;33.84
69770;SHT30;57282;52.514;13.458;2022-07-18T13:29:21;26.16;33.99
69770;SHT30;57282;52.514;13.458;2022-07-18T13:31:47;26.17;34.26
69770;SHT30;57282;52.514;13.458;2022-07-18T13:34:16;26.14;33.98
69770;SHT30;57282;52.514;13.458;2022-07-18T13:36:46;26.13;34.06
69770;SHT30;57282;52.514;13.458;2022-07-18T13:39:14;26.18;34.00
69770;SHT30;57282;52.514;13.458;2022-07-18T13:41:42;26.17;34.20
69770;SHT30;57282;52.514;13.458;2022-07-18T13:44:10;26.27;33.50
69770;SHT30;57282;52.514;13.458;2022-07-18T13:46:36;26.25;33.46
69770;SHT30;57282;52.514;13.458;2022-07-18T13:49:05;26.30;33.71
69770;SHT30;57282;52.514;13.458;2022-07-18T13:51:33;26.28;34.12
69770;SHT30;57282;52.514;13.458;2022-07-18T13:53:59;26.32;34.15
69770;SHT30;57282;52.514;13.458;2022-07-18T13:56:26;26.48;33.22
69770;SHT30;57282;52.514;13.458;2022-07-18T13:58:54;26.52;33.34
69770;SHT30;57282;52.514;13.458;2022-07-18T14:01:21;26.52;33.39
69770;SHT30;57282;52.514;13.458;2022-07-18T14:03:47;26.53;33.54
69770;SHT30;57282;52.514;13.458;2022-07-18T14:06:14;26.58;33.60
69770;SHT30;57282;52.514;13.458;2022-07-18T14:08:40;26.58;32.88
69770;SHT30;57282;52.514;13.458;2022-07-18T14:11:07;26.60;32.95
69770;SHT30;57282;52.514;13.458;2022-07-18T14:13:34;26.69;33.01
69770;SHT30;57282;52.514;13.458;2022-07-18T14:16:02;26.63;32.94
69770;SHT30;57282;52.514;13.458;2022-07-18T14:18:28;26.76;33.24
69770;SHT30;57282;52.514;13.458;2022-07-18T14:20:55;26.78;33.08
69770;SHT30;57282;52.514;13.458;2022-07-18T14:23:22;26.86;32.57
69770;SHT30;57282;52.514;13.458;2022-07-18T14:25:48;26.80;33.26
69770;SHT30;57282;52.514;13.458;2022-07-18T14:28:15;26.82;33.21
69770;SHT30;57282;52.514;13.458;2022-07-18T14:30:41;26.89;33.52
69770;SHT30;57282;52.514;13.458;2022-07-18T14:33:10;26.85;33.10
69770;SHT30;57282;52.514;13.458;2022-07-18T14:35:36;26.85;33.29
69770;SHT30;57282;52.514;13.458;2022-07-18T14:38:04;26.86;33.51
69770;SHT30;57282;52.514;13.458;2022-07-18T14:40:30;26.90;33.49
69770;SHT30;57282;52.514;13.458;2022-07-18T14:42:57;26.99;32.69
69770;SHT30;57282;52.514;13.458;2022-07-18T14:45:23;27.04;33.21
69770;SHT30;57282;52.514;13.458;2022-07-18T14:47:50;27.13;32.75
69770;SHT30;57282;52.514;13.458;2022-07-18T14:50:18;27.22;32.62
69770;SHT30;57282;52.514;13.458;2022-07-18T14:52:44;27.24;32.36
69770;SHT30;57282;52.514;13.458;2022-07-18T14:55:11;27.27;33.07
69770;SHT30;57282;52.514;13.458;2022-07-18T14:57:38;27.29;33.06
69770;SHT30;57282;52.514;13.458;2022-07-18T15:00:07;27.29;32.94
69770;SHT30;57282;52.514;13.458;2022-07-18T15:02:35;27.29;32.83
69770;SHT30;57282;52.514;13.458;2022-07-18T15:05:02;27.23;33.11
69770;SHT30;57282;52.514;13.458;2022-07-18T15:07:31;27.24;32.75
69770;SHT30;57282;52.514;13.458;2022-07-18T15:09:58;27.27;33.02
69770;SHT30;57282;52.514;13.458;2022-07-18T15:12:25;27.29;32.97
69770;SHT30;57282;52.514;13.458;2022-07-18T15:14:53;27.36;32.93
69770;SHT30;57282;52.514;13.458;2022-07-18T15:17:21;27.47;32.50
69770;SHT30;57282;52.514;13.458;2022-07-18T15:19:48;27.44;32.62
69770;SHT30;57282;52.514;13.458;2022-07-18T15:22:15;27.41;32.53